createdAt,value
2022-09-29T00:01:19.749Z,84.76
2022-09-29T00:03:47.307Z,84.69
2022-09-29T00:06:16.978Z,84.68
2022-09-29T00:08:44.474Z,84.88
2022-09-29T00:11:12.713Z,84.93
2022-09-29T00:13:40.223Z,85.29
2022-09-29T00:16:07.766Z,85.01
2022-09-29T00:18:35.679Z,85.03
2022-09-29T00:21:03.952Z,85.03
2022-09-29T00:23:33.334Z,84.99
2022-09-29T00:26:04.477Z,84.77
2022-09-29T00:28:32.240Z,85.00
2022-09-29T00:31:01.109Z,85.04
2022-09-29T00:33:30.142Z,85.20
2022-09-29T00:35:58.992Z,85.09
2022-09-29T00:38:27.122Z,84.82
2022-09-29T00:40:56.022Z,85.06
2022-09-29T00:43:24.117Z,84.95
2022-09-29T00:45:51.857Z,84.84
2022-09-29T00:48:21.979Z,85.13
2022-09-29T00:50:49.952Z,85.06
2022-09-29T00:53:21.387Z,85.09
2022-09-29T00:55:49.595Z,85.19
2022-09-29T00:58:20.692Z,85.10
2022-09-29T01:00:48.192Z,84.95
2022-09-29T01:03:17.280Z,85.16
2022-09-29T01:05:45.827Z,84.89
2022-09-29T01:08:14.233Z,85.04
2022-09-29T01:10:41.811Z,85.01
2022-09-29T01:13:09.418Z,85.21
2022-09-29T01:15:38.177Z,84.98
2022-09-29T01:18:06.844Z,85.09
2022-09-29T01:20:34.817Z,85.02
2022-09-29T01:23:21.904Z,84.70
2022-09-29T01:25:59.753Z,84.98
2022-09-29T01:28:34.517Z,84.90
2022-09-29T01:31:09.641Z,84.89
2022-09-29T01:33:38.392Z,84.97
2022-09-29T01:36:07.297Z,85.09
2022-09-29T01:38:38.346Z,85.30
2022-09-29T01:41:07.824Z,85.07
2022-09-29T01:43:36.134Z,85.30
2022-09-29T01:46:04.566Z,85.15
2022-09-29T01:48:34.421Z,85.11
2022-09-29T01:51:02.594Z,84.97
2022-09-29T01:53:30.866Z,85.03
2022-09-29T01:56:00.046Z,84.94
2022-09-29T01:58:29.017Z,84.86
2022-09-29T02:00:58.086Z,84.84
2022-09-29T02:03:26.133Z,84.74
2022-09-29T02:05:56.217Z,84.88
2022-09-29T02:08:25.709Z,85.07
2022-09-29T02:10:54.974Z,84.77
2022-09-29T02:13:22.890Z,84.69
2022-09-29T02:15:50.774Z,84.82
2022-09-29T02:18:19.800Z,84.75
2022-09-29T02:20:47.569Z,85.03
2022-09-29T02:23:16.486Z,85.02
2022-09-29T02:25:43.946Z,84.94
2022-09-29T02:28:11.487Z,84.86
2022-09-29T02:30:38.969Z,85.08
2022-09-29T02:33:06.442Z,85.14
2022-09-29T02:35:47.230Z,85.41
2022-09-29T02:38:17.391Z,85.64
2022-09-29T02:40:48.616Z,85.44
2022-09-29T02:43:19.892Z,85.64
2022-09-29T02:45:51.019Z,85.45
2022-09-29T02:48:25.288Z,85.24
2022-09-29T02:50:54.234Z,85.07
2022-09-29T02:53:26.007Z,85.35
2022-09-29T02:55:57.251Z,84.98
2022-09-29T02:58:27.037Z,84.94
2022-09-29T03:00:54.581Z,84.88
2022-09-29T03:03:22.199Z,84.99
2022-09-29T03:05:49.676Z,85.01
2022-09-29T03:08:17.132Z,84.90
2022-09-29T03:10:45.972Z,85.06
2022-09-29T03:13:13.819Z,84.77
2022-09-29T03:15:41.272Z,85.08
2022-09-29T03:18:10.195Z,84.82
2022-09-29T03:20:37.883Z,85.03
2022-09-29T03:23:05.512Z,84.81
2022-09-29T03:25:33.255Z,84.92
2022-09-29T03:28:02.284Z,84.93
2022-09-29T03:30:29.773Z,84.76
2022-09-29T03:32:57.220Z,84.60
2022-09-29T03:35:24.692Z,84.65
2022-09-29T03:37:52.101Z,84.65
2022-09-29T03:40:19.655Z,84.93
2022-09-29T03:42:47.303Z,84.69
2022-09-29T03:45:16.188Z,84.88
2022-09-29T03:47:43.681Z,84.86
2022-09-29T03:50:11.376Z,84.78
2022-09-29T03:52:38.878Z,84.90
2022-09-29T03:55:06.730Z,84.93
2022-09-29T03:57:34.173Z,84.85
2022-09-29T04:00:01.869Z,84.89
2022-09-29T04:02:30.825Z,84.88
2022-09-29T04:04:58.335Z,84.90
2022-09-29T04:07:25.811Z,85.22
2022-09-29T04:09:53.301Z,85.33
2022-09-29T04:12:20.758Z,85.28
2022-09-29T04:14:48.236Z,85.20
2022-09-29T04:17:15.697Z,85.10
2022-09-29T04:19:44.675Z,85.15
2022-09-29T04:22:13.300Z,84.97
2022-09-29T04:24:40.776Z,84.91
2022-09-29T04:27:08.278Z,84.94
2022-09-29T04:29:35.729Z,84.75
2022-09-29T04:32:03.470Z,84.76
2022-09-29T04:34:30.950Z,84.63
2022-09-29T04:36:59.867Z,84.83
2022-09-29T04:39:27.350Z,85.15
2022-09-29T04:41:54.817Z,85.03
2022-09-29T04:44:24.303Z,84.91
2022-09-29T04:46:51.877Z,85.16
2022-09-29T04:49:19.482Z,85.29
2022-09-29T04:51:47.366Z,85.44
2022-09-29T04:54:17.143Z,85.22
2022-09-29T04:56:45.148Z,84.40
2022-09-29T04:59:12.990Z,83.94
2022-09-29T05:01:40.719Z,83.56
2022-09-29T05:04:09.729Z,83.63
2022-09-29T05:06:39.411Z,83.43
2022-09-29T05:09:07.285Z,83.39
2022-09-29T05:11:36.485Z,83.12
2022-09-29T05:14:04.298Z,83.37
2022-09-29T05:16:32.281Z,83.07
2022-09-29T05:18:59.963Z,82.97
2022-09-29T05:21:29.097Z,83.30
2022-09-29T05:23:57.557Z,83.29
2022-09-29T05:26:25.477Z,83.14
2022-09-29T05:28:54.591Z,83.07
2022-09-29T05:31:22.374Z,83.03
2022-09-29T05:33:50.152Z,83.36
2022-09-29T05:36:17.855Z,83.23
2022-09-29T05:38:45.766Z,83.47
2022-09-29T05:41:16.168Z,83.19
2022-09-29T05:43:43.834Z,83.28
2022-09-29T05:46:12.966Z,83.23
2022-09-29T05:48:40.635Z,83.15
2022-09-29T05:51:09.664Z,82.97
2022-09-29T05:53:37.624Z,83.04
2022-09-29T05:56:07.198Z,83.04
2022-09-29T05:58:36.197Z,83.11
2022-09-29T06:01:06.299Z,82.82
2022-09-29T06:03:36.318Z,83.15
2022-09-29T06:06:08.709Z,83.06
2022-09-29T06:08:36.707Z,82.93
2022-09-29T06:11:06.113Z,83.01
2022-09-29T06:13:34.102Z,82.97
2022-09-29T06:16:02.163Z,82.94
2022-09-29T06:18:29.850Z,83.19
2022-09-29T06:21:03.202Z,82.98
2022-09-29T06:23:30.991Z,83.14
2022-09-29T06:25:59.170Z,83.25
2022-09-29T06:28:26.929Z,83.27
2022-09-29T06:30:54.586Z,83.40
2022-09-29T06:33:22.284Z,83.43
2022-09-29T06:36:08.542Z,83.50
2022-09-29T06:38:37.962Z,83.59
2022-09-29T06:41:06.424Z,83.41
2022-09-29T06:43:34.414Z,83.58
2022-09-29T06:46:02.133Z,83.41
2022-09-29T06:48:30.275Z,83.57
2022-09-29T06:51:08.994Z,83.40
2022-09-29T06:53:39.458Z,83.54
2022-09-29T06:56:07.464Z,83.24
2022-09-29T06:58:35.596Z,83.87
2022-09-29T07:01:06.115Z,83.81
2022-09-29T07:03:35.265Z,83.77
2022-09-29T07:06:19.442Z,83.60
2022-09-29T07:08:49.268Z,84.05
2022-09-29T07:11:16.962Z,83.79
2022-09-29T07:13:44.627Z,83.71
2022-09-29T07:16:14.536Z,83.90
2022-09-29T07:18:43.323Z,83.83
2022-09-29T07:21:12.854Z,83.95
2022-09-29T07:23:42.259Z,84.17
2022-09-29T07:26:11.719Z,84.26
2022-09-29T07:28:39.375Z,83.87
2022-09-29T07:31:14.117Z,84.62
2022-09-29T07:33:42.791Z,84.74
2022-09-29T07:36:10.444Z,84.71
2022-09-29T07:38:37.925Z,85.10
2022-09-29T07:41:06.342Z,85.30
2022-09-29T07:43:35.521Z,85.12
2022-09-29T07:46:03.142Z,85.43
2022-09-29T07:48:32.150Z,85.30
2022-09-29T07:51:03.543Z,85.38
2022-09-29T07:53:31.180Z,85.58
2022-09-29T07:56:02.925Z,85.72
2022-09-29T07:58:32.270Z,85.46
2022-09-29T08:01:01.302Z,85.61
2022-09-29T08:03:30.170Z,85.54
2022-09-29T08:05:59.242Z,85.81
2022-09-29T08:08:26.825Z,85.80
2022-09-29T08:10:54.337Z,85.86
2022-09-29T08:13:21.870Z,86.23
2022-09-29T08:15:49.365Z,85.97
2022-09-29T08:18:18.297Z,87.57
2022-09-29T08:20:48.455Z,87.53
2022-09-29T08:23:15.939Z,86.81
2022-09-29T08:25:54.263Z,86.83
2022-09-29T08:28:31.466Z,86.65
2022-09-29T08:31:04.444Z,87.21
2022-09-29T08:33:33.911Z,87.78
2022-09-29T08:36:01.702Z,87.09
2022-09-29T08:38:29.205Z,88.33
2022-09-29T08:40:57.449Z,87.74
2022-09-29T08:43:34.083Z,87.76
2022-09-29T08:46:03.589Z,87.45
2022-09-29T08:48:35.774Z,89.09
2022-09-29T08:51:04.580Z,88.63
2022-09-29T08:53:32.729Z,88.48
2022-09-29T08:56:01.662Z,87.66
2022-09-29T08:58:29.130Z,87.30
2022-09-29T09:01:00.266Z,87.10
2022-09-29T09:03:42.690Z,87.20
2022-09-29T09:06:16.778Z,87.56
2022-09-29T09:08:48.513Z,87.66
2022-09-29T09:11:20.581Z,87.91
2022-09-29T09:13:52.001Z,86.84
2022-09-29T09:16:22.621Z,88.97
2022-09-29T09:21:32.546Z,89.38
2022-09-29T09:24:03.169Z,88.16
2022-09-29T09:26:32.834Z,87.58
2022-09-29T09:29:03.974Z,87.62
2022-09-29T09:31:32.745Z,87.88
2022-09-29T09:34:06.332Z,88.49
2022-09-29T09:36:36.751Z,90.39
2022-09-29T09:39:05.822Z,88.27
2022-09-29T09:41:36.001Z,87.80
2022-09-29T09:44:04.427Z,87.40
2022-09-29T09:46:34.687Z,87.33
2022-09-29T09:49:03.570Z,87.02
2022-09-29T09:51:33.668Z,87.07
2022-09-29T09:54:03.657Z,87.95
2022-09-29T09:56:36.070Z,87.67
2022-09-29T09:59:06.863Z,86.76
2022-09-29T10:01:34.465Z,86.91
2022-09-29T10:04:02.223Z,86.57
2022-09-29T10:06:29.783Z,90.40
2022-09-29T10:08:57.302Z,89.16
2022-09-29T10:11:27.251Z,90.23
2022-09-29T10:13:58.318Z,87.41
2022-09-29T10:16:28.961Z,89.28
2022-09-29T10:18:56.510Z,88.49
2022-09-29T10:21:24.581Z,87.65
2022-09-29T10:23:52.826Z,88.32
2022-09-29T10:26:25.755Z,87.67
2022-09-29T10:28:55.440Z,86.81
2022-09-29T10:31:24.120Z,87.25
2022-09-29T10:33:52.905Z,86.38
2022-09-29T10:36:21.785Z,86.62
2022-09-29T10:38:49.607Z,85.99
2022-09-29T10:41:18.906Z,85.57
2022-09-29T10:43:46.992Z,86.09
2022-09-29T10:46:45.402Z,88.01
2022-09-29T10:49:15.944Z,90.01
2022-09-29T10:51:44.141Z,87.77
2022-09-29T10:54:11.660Z,85.99
2022-09-29T10:56:39.321Z,85.55
2022-09-29T10:59:06.869Z,85.90
2022-09-29T11:01:36.349Z,86.83
2022-09-29T11:04:04.354Z,84.44
2022-09-29T11:06:34.060Z,84.53
2022-09-29T11:09:02.156Z,84.31
2022-09-29T11:11:30.609Z,82.56
2022-09-29T11:13:58.161Z,81.69
2022-09-29T11:16:28.569Z,82.51
2022-09-29T11:18:57.202Z,81.66
2022-09-29T11:21:35.770Z,81.70
2022-09-29T11:24:03.838Z,81.82
2022-09-29T11:26:31.491Z,82.70
2022-09-29T11:29:05.452Z,82.93
2022-09-29T11:31:41.446Z,83.31
2022-09-29T11:34:15.445Z,83.48
2022-09-29T11:36:45.625Z,82.42
2022-09-29T11:39:20.243Z,82.29
2022-09-29T11:41:54.194Z,82.31
2022-09-29T11:44:27.753Z,81.82
2022-09-29T11:46:58.117Z,81.75
2022-09-29T11:49:32.388Z,81.53
2022-09-29T11:52:11.709Z,80.80
2022-09-29T11:54:43.346Z,79.38
2022-09-29T11:57:12.479Z,79.26
2022-09-29T11:59:49.661Z,79.08
2022-09-29T12:02:22.548Z,79.42
2022-09-29T12:04:52.806Z,80.28
2022-09-29T12:07:24.865Z,79.67
2022-09-29T12:10:08.386Z,79.23
2022-09-29T12:12:37.830Z,79.15
2022-09-29T12:15:09.359Z,80.31
2022-09-29T12:17:37.380Z,77.11
2022-09-29T12:20:06.059Z,78.55
2022-09-29T12:22:36.896Z,79.18
2022-09-29T12:25:05.235Z,79.11
2022-09-29T12:27:33.446Z,78.44
2022-09-29T12:30:03.036Z,79.29
2022-09-29T12:32:31.117Z,78.48
2022-09-29T12:34:58.934Z,78.84
2022-09-29T12:37:28.295Z,78.92
2022-09-29T12:40:00.999Z,78.83
2022-09-29T12:42:32.602Z,75.28
2022-09-29T12:45:02.400Z,74.68
2022-09-29T12:47:31.007Z,75.51
2022-09-29T12:50:01.443Z,75.19
2022-09-29T12:52:31.128Z,75.07
2022-09-29T12:55:00.564Z,73.26
2022-09-29T12:57:29.314Z,75.21
2022-09-29T13:01:39.079Z,74.14
2022-09-29T13:04:18.630Z,74.29
2022-09-29T13:06:52.089Z,73.68
2022-09-29T13:09:27.055Z,75.19
2022-09-29T13:12:01.290Z,75.23
2022-09-29T13:14:34.410Z,76.40
2022-09-29T13:17:12.383Z,75.75
2022-09-29T13:20:58.096Z,76.68
2022-09-29T13:23:46.679Z,74.80
2022-09-29T13:26:31.826Z,75.25
2022-09-29T13:28:59.750Z,72.78
2022-09-29T13:31:32.569Z,71.45
2022-09-29T13:34:02.299Z,72.76
2022-09-29T13:36:36.257Z,70.29
2022-09-29T13:39:04.228Z,70.62
2022-09-29T13:41:38.587Z,73.97
2022-09-29T13:44:07.225Z,72.41
2022-09-29T13:46:38.390Z,70.08
2022-09-29T13:49:12.901Z,72.15
2022-09-29T13:51:50.003Z,72.42
2022-09-29T13:54:23.805Z,69.88
2022-09-29T13:56:51.698Z,73.81
2022-09-29T13:59:19.840Z,75.16
2022-09-29T14:01:47.371Z,72.50
2022-09-29T14:04:37.543Z,72.90
2022-09-29T14:07:06.178Z,74.04
2022-09-29T14:09:35.557Z,71.91
2022-09-29T14:12:03.495Z,72.71
2022-09-29T14:14:31.614Z,74.42
2022-09-29T14:17:01.572Z,75.67
2022-09-29T14:19:34.520Z,76.82
2022-09-29T14:22:02.633Z,77.53
2022-09-29T14:24:45.575Z,77.41
2022-09-29T14:27:18.282Z,76.40
2022-09-29T14:29:47.073Z,76.79
2022-09-29T14:32:18.013Z,76.36
2022-09-29T14:34:45.523Z,69.40
2022-09-29T14:37:15.383Z,69.14
2022-09-29T14:40:04.200Z,70.61
2022-09-29T14:42:31.727Z,68.92
2022-09-29T14:45:13.072Z,66.73
2022-09-29T14:47:58.303Z,67.33
2022-09-29T14:50:49.360Z,69.46
2022-09-29T14:53:20.752Z,64.14
2022-09-29T14:55:54.260Z,65.36
2022-09-29T14:58:25.555Z,67.15
2022-09-29T15:00:57.746Z,72.21
2022-09-29T15:03:28.446Z,64.29
2022-09-29T15:06:06.325Z,68.86
2022-09-29T15:08:35.768Z,66.90
2022-09-29T15:11:07.664Z,66.64
2022-09-29T15:13:35.204Z,67.53
2022-09-29T15:16:04.762Z,69.04
2022-09-29T15:18:35.871Z,68.34
2022-09-29T15:21:05.606Z,64.88
2022-09-29T15:23:53.153Z,66.15
2022-09-29T15:26:22.181Z,67.41
2022-09-29T15:28:49.635Z,67.04
2022-09-29T15:31:18.221Z,68.51
2022-09-29T15:33:46.546Z,67.17
2022-09-29T15:36:17.684Z,69.08
2022-09-29T15:38:45.151Z,69.10
2022-09-29T15:41:16.660Z,65.88
2022-09-29T15:43:46.746Z,66.83
2022-09-29T15:46:16.640Z,69.32
2022-09-29T15:48:44.212Z,68.80
2022-09-29T15:51:12.394Z,68.80
2022-09-29T15:53:40.313Z,71.63
2022-09-29T15:56:07.772Z,72.66
2022-09-29T15:58:36.967Z,72.70
2022-09-29T16:01:07.000Z,73.41
2022-09-29T16:03:39.093Z,72.44
2022-09-29T16:06:08.131Z,73.41
2022-09-29T16:08:37.064Z,73.91
2022-09-29T16:11:05.113Z,74.15
2022-09-29T16:13:33.494Z,74.38
2022-09-29T16:16:01.582Z,74.94
2022-09-29T16:18:31.814Z,74.89
2022-09-29T16:21:00.229Z,75.41
2022-09-29T16:23:28.786Z,74.76
2022-09-29T16:26:56.694Z,76.22
2022-09-29T16:29:28.371Z,76.00
2022-09-29T16:31:55.893Z,76.03
2022-09-29T16:34:25.371Z,76.07
2022-09-29T16:36:53.166Z,76.47
2022-09-29T16:39:20.883Z,77.00
2022-09-29T16:41:48.845Z,77.13
2022-09-29T16:44:18.394Z,77.31
2022-09-29T16:46:46.831Z,77.51
2022-09-29T16:49:15.689Z,77.72
2022-09-29T16:51:44.207Z,78.26
2022-09-29T16:54:13.019Z,78.14
2022-09-29T16:56:40.850Z,78.52
2022-09-29T16:59:12.272Z,78.94
2022-09-29T17:01:42.149Z,79.33
2022-09-29T17:04:09.644Z,79.23
2022-09-29T17:06:37.274Z,79.49
2022-09-29T17:09:05.163Z,79.68
2022-09-29T17:11:32.613Z,79.91
2022-09-29T17:14:00.110Z,80.06
2022-09-29T17:16:27.837Z,80.37
2022-09-29T17:19:01.185Z,80.33
2022-09-29T17:21:30.277Z,80.83
2022-09-29T17:24:00.321Z,80.70
2022-09-29T17:26:45.871Z,81.06
2022-09-29T17:29:13.376Z,81.01
2022-09-29T17:31:40.883Z,81.15
2022-09-29T17:34:09.714Z,81.35
2022-09-29T17:36:37.342Z,81.59
2022-09-29T17:39:05.027Z,81.73
2022-09-29T17:41:32.563Z,81.68
2022-09-29T17:44:00.016Z,81.95
2022-09-29T17:46:27.567Z,82.00
2022-09-29T17:48:55.120Z,81.88
2022-09-29T17:51:23.966Z,82.11
2022-09-29T17:53:51.487Z,82.34
2022-09-29T17:56:21.702Z,82.00
2022-09-29T17:58:49.511Z,82.02
2022-09-29T18:01:18.059Z,81.96
2022-09-29T18:03:45.763Z,82.24
2022-09-29T18:06:15.171Z,82.25
2022-09-29T18:08:44.060Z,82.33
2022-09-29T18:11:11.493Z,82.53
2022-09-29T18:13:39.132Z,82.39
2022-09-29T18:16:06.846Z,82.51
2022-09-29T18:18:37.033Z,82.89
2022-09-29T18:21:06.194Z,82.74
2022-09-29T18:23:34.914Z,83.03
2022-09-29T18:26:03.836Z,82.82
2022-09-29T18:28:31.290Z,83.00
2022-09-29T18:31:02.202Z,83.12
2022-09-29T18:33:30.124Z,83.08
2022-09-29T18:35:57.642Z,83.06
2022-09-29T18:38:25.163Z,82.83
2022-09-29T18:40:54.041Z,83.08
2022-09-29T18:43:25.888Z,82.91
2022-09-29T18:45:53.545Z,83.12
2022-09-29T18:48:21.078Z,83.12
2022-09-29T18:50:49.014Z,83.03
2022-09-29T18:53:17.209Z,83.31
2022-09-29T18:55:44.806Z,83.11
2022-09-29T18:58:13.065Z,83.27
2022-09-29T19:00:42.642Z,83.05
2022-09-29T19:03:10.186Z,83.35
2022-09-29T19:05:37.783Z,83.03
2022-09-29T19:08:05.927Z,83.00
2022-09-29T19:10:34.310Z,83.25
2022-09-29T19:13:04.140Z,83.39
2022-09-29T19:15:34.683Z,83.57
2022-09-29T19:18:05.388Z,83.70
2022-09-29T19:20:32.922Z,83.48
2022-09-29T19:23:02.747Z,83.71
2022-09-29T19:25:31.153Z,83.45
2022-09-29T19:27:58.912Z,83.55
2022-09-29T19:30:26.940Z,83.64
2022-09-29T19:32:54.598Z,83.63
2022-09-29T19:35:24.927Z,83.61
2022-09-29T19:37:52.680Z,83.39
2022-09-29T19:40:21.390Z,83.39
2022-09-29T19:42:48.986Z,83.26
2022-09-29T19:45:16.526Z,83.31
2022-09-29T19:47:43.993Z,83.36
2022-09-29T19:50:28.759Z,83.20
2022-09-29T19:52:57.746Z,83.30
2022-09-29T19:55:25.309Z,83.22
2022-09-29T19:57:52.755Z,83.07
2022-09-29T20:00:21.057Z,83.29
2022-09-29T20:02:48.710Z,83.43
2022-09-29T20:05:16.844Z,83.31
2022-09-29T20:07:44.884Z,83.36
2022-09-29T20:10:14.365Z,83.45
2022-09-29T20:12:42.299Z,83.77
2022-09-29T20:15:10.395Z,83.59
2022-09-29T20:17:37.921Z,83.32
2022-09-29T20:20:05.766Z,83.42
2022-09-29T20:22:34.076Z,83.59
2022-09-29T20:25:02.205Z,83.40
2022-09-29T20:27:31.135Z,83.46
2022-09-29T20:29:58.834Z,83.53
2022-09-29T20:32:28.591Z,83.53
2022-09-29T20:34:56.200Z,83.70
2022-09-29T20:37:23.762Z,83.78
2022-09-29T20:39:52.106Z,83.78
2022-09-29T20:42:19.622Z,83.71
2022-09-29T20:44:56.062Z,84.03
2022-09-29T20:47:24.711Z,83.80
2022-09-29T20:49:55.083Z,83.82
2022-09-29T20:52:22.835Z,83.54
2022-09-29T20:54:50.336Z,83.59
2022-09-29T20:57:17.955Z,83.55
2022-09-29T20:59:45.542Z,83.65
2022-09-29T21:02:14.846Z,83.79
2022-09-29T21:04:43.206Z,83.92
2022-09-29T21:07:35.604Z,83.97
2022-09-29T21:10:03.154Z,83.97
2022-09-29T21:12:32.523Z,84.05
2022-09-29T21:15:00.300Z,83.79
2022-09-29T21:17:29.394Z,83.85
2022-09-29T21:19:56.979Z,84.03
2022-09-29T21:22:27.684Z,83.97
2022-09-29T21:24:55.862Z,84.13
2022-09-29T21:27:23.382Z,83.89
2022-09-29T21:29:50.949Z,84.13
2022-09-29T21:32:18.524Z,84.03
2022-09-29T21:34:47.363Z,84.08
2022-09-29T21:37:15.345Z,84.02
2022-09-29T21:39:42.877Z,83.80
2022-09-29T21:42:10.362Z,83.98
2022-09-29T21:44:37.938Z,83.74
2022-09-29T21:47:05.361Z,83.90
2022-09-29T21:49:32.860Z,83.88
2022-09-29T21:52:02.274Z,84.07
2022-09-29T21:54:30.239Z,83.80
2022-09-29T21:56:57.826Z,83.99
2022-09-29T21:59:25.358Z,83.84
2022-09-29T22:01:53.312Z,83.87
2022-09-29T22:04:21.153Z,83.92
2022-09-29T22:06:48.795Z,84.01
2022-09-29T22:09:18.761Z,84.06
2022-09-29T22:11:46.295Z,83.97
2022-09-29T22:14:14.583Z,84.14
2022-09-29T22:16:42.256Z,83.94
2022-09-29T22:19:22.979Z,84.17
2022-09-29T22:21:51.108Z,84.25
2022-09-29T22:24:19.940Z,84.21
2022-09-29T22:26:47.455Z,84.23
2022-09-29T22:29:15.025Z,84.45
2022-09-29T22:31:42.666Z,84.13
2022-09-29T22:34:11.147Z,84.09
2022-09-29T22:36:38.947Z,84.23
2022-09-29T22:39:06.867Z,84.06
2022-09-29T22:41:36.878Z,84.27
2022-09-29T22:44:05.065Z,84.44
2022-09-29T22:46:33.042Z,84.19
2022-09-29T22:49:00.705Z,84.23
2022-09-29T22:51:28.471Z,84.36
2022-09-29T22:53:55.926Z,84.50
2022-09-29T22:56:28.291Z,84.38
2022-09-29T22:58:59.860Z,84.43
2022-09-29T23:01:27.551Z,84.26
2022-09-29T23:03:55.139Z,84.13
2022-09-29T23:06:22.742Z,84.26
2022-09-29T23:08:50.174Z,84.05
2022-09-29T23:11:18.474Z,83.92
2022-09-29T23:13:46.523Z,84.30
2022-09-29T23:16:16.364Z,84.24
2022-09-29T23:18:45.446Z,84.00
2022-09-29T23:21:13.631Z,84.04
2022-09-29T23:23:41.081Z,84.05
2022-09-29T23:26:08.559Z,84.12
2022-09-29T23:28:36.067Z,83.95
2022-09-29T23:31:04.246Z,84.11
2022-09-29T23:33:33.272Z,84.08
2022-09-29T23:36:07.614Z,84.03
2022-09-29T23:38:52.428Z,83.90
2022-09-29T23:41:20.648Z,83.97
2022-09-29T23:43:48.121Z,83.88
2022-09-29T23:46:15.678Z,83.68
2022-09-29T23:48:44.700Z,83.90
2022-09-29T23:51:12.175Z,83.93
2022-09-29T23:53:39.617Z,83.86
2022-09-29T23:56:07.107Z,84.28
2022-09-29T23:58:34.599Z,84.20
